Flight Track Log - Related Links

Times and Time Zones

All times are in EDT time to prevent confusion due to time zone crossing. See the ASQ5941 flight status page for this flight to view local times or setup timezone preferences in your user account.

Time Position Orientation Groundspeed Altitude Reporting Facility
EDT Latitude Longitude Course Direction KTS MPH feet Rate Location/Type
Tue 03:03:44 PM 42.0167 -87.8667 80° East 151 174 2,600  Level Chicago TRACON
Tue 03:04:44 PM 42.0333 -87.8167 66° East 208 239 4,400 1,895 Climbing Chicago TRACON
Tue 03:05:38 PM 42.0500 -87.7333 75° East 247 284 6,200 2,063 Climbing Chicago TRACON
Tue 03:06:00 PM 42.0495 -87.3722 83° East  Level FlightAware Approximate
Tue 03:07:00 PM 42.0698 -87.2380 78° East  Level FlightAware Approximate
Tue 03:07:56 PM 42.0697 -87.5114 83° East 270 311 11,000  Level Chicago Center
Tue 03:08:00 PM 42.0910 -87.1040 77° East  Level FlightAware Approximate
Tue 03:08:58 PM 42.0797 -87.4025 83° East 287 330 12,900  Level Chicago Center
Tue 03:09:00 PM 42.1039 -86.9688 80° East  Level FlightAware Approximate
Tue 03:10:00 PM 42.0911 -87.2861 82° East 305 351 14,000  Level Chicago Center
Tue 03:11:02 PM 42.1039 -87.1567 82° East 338 389 15,000 1,065 Climbing Chicago Center
Tue 03:12:04 PM 42.1142 -86.9928 85° East 361 415 16,200 1,065 Climbing Chicago Center
Tue 03:13:06 PM 42.1197 -86.8522 87° East 373 429 17,200 1,016 Climbing Chicago Center
Tue 03:14:08 PM 42.1231 -86.7069 88° East 384 442 18,300 1,113 Climbing Chicago Center
Tue 03:15:10 PM 42.1283 -86.5589 87° East 383 441 19,500 1,065 Climbing Chicago Center
Tue 03:16:12 PM 42.1342 -86.4108 87° East 391 450 20,500 1,065 Climbing Chicago Center
Tue 03:17:14 PM 42.1386 -86.2622 88° East 396 456 21,700 1,152 Climbing Chicago Center
Tue 03:18:17 PM 42.1431 -86.1139 88° East 396 456 22,900 1,200 Climbing Chicago Center
Tue 03:19:19 PM 42.1425 -85.9486 90° East 395 455 24,200 1,161 Climbing Chicago Center
Tue 03:20:21 PM 42.1411 -85.7994 91° East 398 458 25,300 1,065 Climbing Chicago Center
Tue 03:21:23 PM 42.1406 -85.6528 90° East 396 456 26,400 1,258 Climbing Chicago Center
Tue 03:22:25 PM 42.1392 -85.4783 91° East 393 452 27,900 1,258 Climbing Chicago Center
Tue 03:23:27 PM 42.1372 -85.3358 91° East 386 444 29,000 1,113 Climbing Chicago Center
Tue 03:24:29 PM 42.1358 -85.1947 91° East 380 437 30,200 1,161 Climbing Chicago Center
Tue 03:25:31 PM 42.1339 -85.0564 91° East 374 430 31,400 1,161 Climbing Chicago Center
Tue 03:26:33 PM 42.1308 -84.9150 92° East 377 434 32,600 1,065 Climbing Chicago Center
Tue 03:27:35 PM 42.1286 -84.7728 91° East 380 437 33,600 1,200 Climbing Chicago Center
Tue 03:28:33 PM 42.1289 -84.6125 90° East 373 429 35,000 712 Climbing Cleveland Center
Tue 03:29:33 PM 42.1275 -84.4694 91° East 373 429 35,000  Level Cleveland Center
Tue 03:30:33 PM 42.1431 -84.3164 82° East 395 455 35,000  Level Cleveland Center
Tue 03:31:33 PM 42.1536 -84.1825 84° East 401 461 35,000  Level Cleveland Center
Tue 03:32:33 PM 42.1708 -84.0294 81° East 406 467 35,000  Level Cleveland Center
Tue 03:33:33 PM 42.1856 -83.8817 82° East 406 467 35,000  Level Cleveland Center
Tue 03:34:33 PM 42.2025 -83.7311 81° East 406 467 35,000  Level Cleveland Center
Tue 03:35:33 PM 42.2194 -83.5608 82° East 405 466 35,000  Level Cleveland Center
Tue 03:36:33 PM 42.2294 -83.4128 85° East 405 466 35,000  Level Cleveland Center
Tue 03:37:33 PM 42.2289 -83.2639 90° East 397 457 35,000  Level Cleveland Center
Tue 03:38:33 PM 42.2300 -83.1267 89° East 397 457 35,000  Level Cleveland Center
Tue 03:39:33 PM 42.2308 -82.9781 90° East 402 463 35,000  Level Cleveland Center
Tue 03:40:33 PM 42.2319 -82.8294 89° East 402 463 35,000  Level Cleveland Center
Tue 03:41:33 PM 42.2325 -82.6808 90° East 402 463 35,000  Level Cleveland Center
Tue 03:42:33 PM 42.2331 -82.5322 90° East 402 463 35,000  Level Cleveland Center
Tue 03:43:33 PM 42.2336 -82.3808 90° East 402 463 35,000  Level Cleveland Center
Tue 03:44:33 PM 42.2336 -82.2322 90° East 402 463 35,000  Level Cleveland Center
Tue 03:45:33 PM 42.2317 -82.0694 91° East 402 463 35,000  Level Cleveland Center
Tue 03:46:33 PM 42.2336 -81.9153 89° East 402 463 35,000  Level Cleveland Center
Tue 03:47:33 PM 42.2311 -81.7667 91° East 397 457 35,000  Level Cleveland Center
Tue 03:48:33 PM 42.2306 -81.6181 90° East 397 457 35,000  Level Cleveland Center
Tue 03:49:33 PM 42.2297 -81.4664 90° East 403 464 35,000  Level Cleveland Center
Tue 03:50:34 PM 42.2286 -81.3150 91° East 403 464 35,000  Level Cleveland Center
Tue 03:51:33 PM 42.2275 -81.1581 90° East 408 470 35,000  Level Cleveland Center
Tue 03:52:33 PM 42.2258 -81.0178 91° East 408 470 35,000  Level Cleveland Center
Tue 03:53:34 PM 42.2264 -80.8664 90° East 408 470 35,000  Level Cleveland Center
Tue 03:54:33 PM 42.2225 -80.7122 92° East 408 470 35,000  Level Cleveland Center
Tue 03:55:33 PM 42.2206 -80.5553 91° East 408 470 35,000 -450 Level Cleveland Center
Tue 03:56:33 PM 42.2183 -80.4036 91° East 408 470 34,100 -500 Descending Cleveland Center
Tue 03:57:33 PM 42.2139 -80.2553 92° East 394 453 34,000 -50 Descending Cleveland Center
Tue 03:58:33 PM 42.2133 -80.0953 90° East 394 453 34,000  Level Cleveland Center
Tue 03:59:33 PM 42.2106 -79.9608 92° East 394 453 34,000  Level Cleveland Center
Tue 04:00:33 PM 42.2056 -79.8150 93° East 394 453 34,000  Level Cleveland Center
Tue 04:01:33 PM 42.2044 -79.6639 91° East 389 448 34,000  Level Cleveland Center
Tue 04:02:33 PM 42.1989 -79.5125 93° East 394 453 34,000  Level Cleveland Center
Tue 04:03:33 PM 42.1953 -79.3639 92° East 394 453 34,000  Level Cleveland Center
Tue 04:04:33 PM 42.1917 -79.2156 92° East 394 453 34,000 -650 Level Cleveland Center
Tue 04:05:33 PM 42.1753 -79.0731 99° East 394 453 32,700 -1,600 Descending Cleveland Center
Tue 04:06:33 PM 42.1419 -78.9311 108° East 394 453 30,800 -1,950 Descending Cleveland Center
Tue 04:07:33 PM 42.1044 -78.7864 109° East 394 453 28,800 -1,934 Descending Cleveland Center
Tue 04:08:34 PM 42.0667 -78.6392 109° East 407 468 26,900 -1,950 Descending Cleveland Center
Tue 04:09:33 PM 42.0306 -78.4922 108° East 407 468 24,900 -1,916 Descending Cleveland Center
Tue 04:10:33 PM 41.9903 -78.3453 110° East 407 468 23,100 -942 Descending Cleveland Center
Tue 04:11:34 PM 41.9561 -78.2014 108° East 407 468 23,000 -50 Descending Cleveland Center
Tue 04:12:34 PM 41.9178 -78.0578 110° East 407 468 23,000  Level Cleveland Center
Tue 04:13:52 PM 41.8622 -77.8533 110° East 408 470 23,000  Level New York Center
Tue 04:14:54 PM 41.8119 -77.7172 116° Southeast 408 470 23,000  Level New York Center
Tue 04:15:54 PM 41.7572 -77.5808 118° Southeast 413 475 23,000  Level New York Center
Tue 04:16:53 PM 41.7047 -77.4447 117° Southeast 418 481 23,000  Level New York Center
Tue 04:17:54 PM 41.6797 -77.2922 102° East 406 467 23,000 -545 Level New York Center
Tue 04:18:54 PM 41.6650 -77.1408 97° East 411 473 21,900 -1,388 Descending New York Center
Tue 04:19:55 PM 41.6500 -76.9922 98° East 405 466 20,200 -1,636 Descending New York Center
Tue 04:20:55 PM 41.6358 -76.8631 98° East 400 460 18,600 -2,034 Descending New York Center
Tue 04:21:53 PM 41.6169 -76.7033 99° East 390 449 16,200 -2,288 Descending New York Center
Tue 04:22:53 PM 41.6008 -76.5658 99° East 390 449 14,100 -2,100 Descending New York Center
Tue 04:23:53 PM 41.5861 -76.4372 99° East 365 420 12,000 -1,672 Descending New York Center
Tue 04:24:55 PM 41.5744 -76.3336 99° East 328 377 10,700 -1,300 Descending New York Center
Tue 04:25:53 PM 41.5644 -76.2356 98° East 288 331 9,400 -1,475 Descending New York Center
Tue 04:26:53 PM 41.5458 -76.1369 104° East 254 292 7,800 -1,488 Descending New York Center
Tue 04:27:54 PM 41.4878 -76.0853 146° Southeast 231 266 6,400 -1,328 Descending New York Center
Tue 04:28:55 PM 41.4297 -76.0364 148° Southeast 245 282 5,100 -1,190 Descending New York Center
Tue 04:29:55 PM 41.3775 -75.9936 148° Southeast 245 282 4,000 -559 Descending New York Center
Tue 04:30:53 PM 41.3189 -75.9478 150° Southeast 240 276 4,000 -102 Level New York Center
Tue 04:31:53 PM 41.2844 -75.8817 125° Southeast 232 267 3,800 -650 Descending New York Center
Tue 04:32:53 PM 41.2606 -75.8053 113° Southeast 209 241 2,700 -893 Descending New York Center
Tue 04:33:54 PM 41.2850 -75.7711 46° Northeast 144 166 2,000 -738 Descending New York Center
Tue 04:34:55 PM 41.3153 -75.7431 35° Northeast 118 136 1,200 -443 Descending New York Center
Tue 04:35:56 PM 41.3317 -75.6972 65° Northeast 118 136 1,100 -98 Descending New York Center
Tue 04:37:00 PM 41.3333 -75.7167 304° West  Level FlightAware Approximate
Tue 04:44:00 PM 41.3385 -75.7234 304° West  Level Estimated
Tue 04:45:00 PM 41.3333 -75.7167 304° West  Level FlightAware Approximate
Tue 04:46:00 PM 41.3385 -75.7234 304° West  Level Estimated
Tue 04:47:00 PM 41.3333 -75.7167 304° West  Level FlightAware Approximate
Tue 04:48:00 PM 41.3385 -75.7234 304° West  Level Estimated
Tue 04:49:00 PM 41.3333 -75.7167 304° West  Level FlightAware Approximate

Login

Don't have an account? Register now (free) for customized features, flight alerts, and more!